Time;durP1;ratioP1;P1;durP2;ratioP2;P2;SDS_P1;SDS_P2;PMS_P1;PMS_P2;Temp;Humidity;BMP_temperature;BMP_pressure;BME280_temperature;BME280_humidity;BME280_pressure;Samples;Min_cycle;Max_cycle;Signal;HPM_P1;HPM_P2
2021/08/18 00:01:26;;;;;;;6.68;5.65;;;16.30;99.90;;;;;;5047627;28;20083;-76
2021/08/18 00:03:51;;;;;;;9.23;5.53;;;16.30;99.90;;;;;;5047382;28;20587;-75
2021/08/18 00:06:17;;;;;;;8.15;5.15;;;16.30;99.90;;;;;;5048573;28;20370;-75
2021/08/18 00:08:44;;;;;;;8.82;5.32;;;16.30;99.90;;;;;;5049308;28;20025;-75
2021/08/18 00:11:10;;;;;;;11.98;5.80;;;16.30;99.90;;;;;;5049452;28;20021;-75
2021/08/18 00:13:36;;;;;;;8.50;5.35;;;16.30;99.90;;;;;;5048925;28;20029;-75
2021/08/18 00:16:02;;;;;;;9.27;5.30;;;16.30;99.90;;;;;;5046091;28;20378;-75
2021/08/18 00:18:27;;;;;;;10.95;6.15;;;16.20;99.90;;;;;;5048691;28;20044;-76
2021/08/18 00:20:53;;;;;;;13.75;5.97;;;16.20;99.90;;;;;;5048799;28;20035;-76
2021/08/18 00:23:20;;;;;;;9.10;5.30;;;16.20;99.90;;;;;;5049374;28;20032;-76
2021/08/18 00:25:45;;;;;;;9.32;5.30;;;16.20;99.90;;;;;;5051414;28;20060;-76
2021/08/18 00:28:11;;;;;;;9.65;5.50;;;16.20;99.90;;;;;;5051198;28;20515;-76
2021/08/18 00:30:37;;;;;;;12.60;5.30;;;16.20;99.90;;;;;;5051241;28;20114;-76
2021/08/18 00:33:03;;;;;;;12.63;5.50;;;16.20;99.90;;;;;;5051283;28;20024;-76
2021/08/18 00:35:28;;;;;;;11.65;5.60;;;16.00;99.90;;;;;;5072210;28;20449;-76
2021/08/18 00:37:54;;;;;;;9.45;4.28;;;16.00;99.90;;;;;;5055244;28;20013;-76
2021/08/18 00:40:20;;;;;;;9.07;3.95;;;16.00;99.90;;;;;;5053851;28;20033;-77
2021/08/18 00:42:46;;;;;;;6.35;4.07;;;16.00;99.90;;;;;;5053645;28;20075;-77
2021/08/18 00:45:14;;;;;;;5.35;3.15;;;16.00;99.90;;;;;;5056069;28;20401;-77
2021/08/18 00:47:50;;;;;;;4.80;3.03;;;16.00;99.90;;;;;;5063828;28;20021;-77
2021/08/18 00:50:22;;;;;;;9.27;2.38;;;15.90;99.90;;;;;;5075623;28;20021;-78
2021/08/18 00:52:48;;;;;;;6.25;2.25;;;15.70;99.90;;;;;;5062672;28;20021;-77
2021/08/18 00:55:16;;;;;;;2.55;2.30;;;15.70;99.90;;;;;;5061692;28;20047;-77
2021/08/18 00:57:41;;;;;;;;;;;15.70;99.90;;;;;;5075089;28;20025;-77
2021/08/18 01:00:09;;;;;;;5.18;2.30;;;15.70;99.90;;;;;;5060685;28;19913;-76
2021/08/18 01:02:36;;;;;;;5.00;2.03;;;15.60;99.90;;;;;;5062296;28;20040;-77
2021/08/18 01:05:11;;;;;;;8.45;2.40;;;15.70;99.90;;;;;;5061349;28;20033;-76
2021/08/18 01:07:37;;;;;;;5.68;2.60;;;15.70;99.90;;;;;;5072345;28;20489;-77
2021/08/18 01:10:06;;;;;;;7.95;3.42;;;15.70;99.90;;;;;;5053379;28;20028;-76
2021/08/18 01:12:34;;;;;;;5.45;2.78;;;15.70;99.90;;;;;;5055918;28;20025;-76
2021/08/18 01:15:03;;;;;;;3.83;2.33;;;15.70;99.90;;;;;;5054944;28;20021;-77
2021/08/18 01:17:33;;;;;;;2.97;2.30;;;15.70;99.90;;;;;;5054275;28;20139;-76
2021/08/18 01:20:00;;;;;;;6.55;2.42;;;15.70;99.90;;;;;;5053829;28;20128;-76
2021/08/18 01:22:26;;;;;;;7.83;2.40;;;15.80;99.90;;;;;;5053817;28;20044;-76
2021/08/18 01:24:52;;;;;;;4.75;2.10;;;15.80;99.90;;;;;;5053599;28;20287;-76
2021/08/18 01:27:18;;;;;;;3.60;2.10;;;15.80;99.90;;;;;;5055258;28;20481;-76
2021/08/18 01:29:44;;;;;;;3.55;2.50;;;15.80;99.90;;;;;;5053454;28;20028;-76
2021/08/18 01:32:09;;;;;;;3.08;2.60;;;15.80;99.90;;;;;;5054571;28;20047;-76
2021/08/18 01:34:36;;;;;;;4.18;2.78;;;15.70;99.90;;;;;;5068463;28;20483;-76
2021/08/18 01:37:02;;;;;;;4.40;2.60;;;15.70;99.90;;;;;;5054298;28;20032;-76
2021/08/18 01:39:28;;;;;;;14.00;2.53;;;15.70;99.90;;;;;;5052734;28;20422;-77
2021/08/18 01:41:54;;;;;;;9.55;2.35;;;15.80;99.90;;;;;;5052173;28;20060;-76
2021/08/18 01:44:19;;;;;;;6.82;2.75;;;15.80;99.90;;;;;;5053304;28;20025;-76
2021/08/18 01:46:45;;;;;;;5.60;2.20;;;15.80;99.90;;;;;;5068860;28;20446;-76
2021/08/18 01:49:11;;;;;;;3.35;2.33;;;15.80;99.90;;;;;;5053112;28;20025;-76
2021/08/18 01:51:36;;;;;;;9.10;2.25;;;15.90;99.90;;;;;;5051502;28;20032;-76
2021/08/18 01:54:02;;;;;;;4.03;2.25;;;15.80;99.90;;;;;;5053135;28;20021;-76
2021/08/18 01:56:28;;;;;;;3.58;2.60;;;15.80;99.90;;;;;;5067898;28;20036;-76
2021/08/18 01:58:54;;;;;;;4.57;2.35;;;15.80;99.90;;;;;;5052492;28;20119;-75
2021/08/18 02:01:21;;;;;;;4.78;2.60;;;15.90;99.90;;;;;;5052909;28;20420;-76
2021/08/18 02:03:47;;;;;;;7.53;2.83;;;15.90;99.90;;;;;;5052747;28;20493;-76
2021/08/18 02:06:13;;;;;;;4.20;2.67;;;15.90;99.90;;;;;;5051958;28;20563;-76
2021/08/18 02:08:38;;;;;;;3.92;2.70;;;15.90;99.90;;;;;;5052760;28;20037;-76
2021/08/18 02:11:04;;;;;;;6.30;3.33;;;15.90;99.90;;;;;;5052326;28;20024;-76
2021/08/18 02:13:31;;;;;;;6.03;3.25;;;15.90;99.90;;;;;;5052104;28;20040;-76
2021/08/18 02:15:57;;;;;;;9.32;3.75;;;15.90;99.90;;;;;;5052716;28;20021;-76
2021/08/18 02:18:22;;;;;;;4.00;2.83;;;15.90;99.90;;;;;;5050991;28;20381;-75
2021/08/18 02:20:48;;;;;;;9.77;3.67;;;15.90;99.90;;;;;;5050327;28;20040;-75
2021/08/18 02:23:15;;;;;;;5.55;3.58;;;16.00;99.90;;;;;;5051829;28;20013;-75
2021/08/18 02:25:40;;;;;;;13.50;4.32;;;16.00;99.90;;;;;;5052457;28;20083;-76
2021/08/18 02:28:07;;;;;;;7.32;4.55;;;16.00;99.90;;;;;;5052281;28;20021;-76
2021/08/18 02:30:33;;;;;;;10.02;3.88;;;16.10;99.90;;;;;;5051724;28;20032;-76
2021/08/18 02:32:59;;;;;;;5.25;3.50;;;16.10;99.90;;;;;;5051932;28;20021;-76
2021/08/18 02:35:26;;;;;;;5.38;3.97;;;16.10;99.90;;;;;;5051237;28;20029;-76
2021/08/18 02:37:53;;;;;;;5.20;3.77;;;16.10;99.90;;;;;;5052180;28;20033;-76
2021/08/18 02:40:20;;;;;;;17.13;4.57;;;16.10;99.90;;;;;;5066532;28;20074;-75
2021/08/18 02:42:51;;;;;;;11.15;4.88;;;16.10;99.90;;;;;;5050203;28;20028;-76
2021/08/18 02:45:18;;;;;;;7.72;4.57;;;16.10;99.90;;;;;;5051917;28;20064;-77
2021/08/18 02:47:44;;;;;;;16.60;6.80;;;16.10;99.90;;;;;;5051783;28;20032;-76
2021/08/18 02:50:12;;;;;;;9.32;5.35;;;16.10;99.90;;;;;;5051255;28;20017;-75
2021/08/18 02:52:37;;;;;;;10.00;5.70;;;16.10;99.90;;;;;;5051975;28;20031;-76
2021/08/18 02:55:04;;;;;;;13.50;5.10;;;16.10;99.90;;;;;;5067228;28;20115;-76
2021/08/18 02:57:30;;;;;;;6.27;4.60;;;16.10;99.90;;;;;;5050101;28;20079;-76
2021/08/18 02:59:56;;;;;;;8.48;5.20;;;16.10;99.90;;;;;;5051304;28;20485;-77
2021/08/18 03:02:23;;;;;;;10.43;5.50;;;16.10;99.90;;;;;;5051031;28;20086;-77
2021/08/18 03:04:49;;;;;;;10.00;5.13;;;16.10;99.90;;;;;;5050261;28;20040;-76
2021/08/18 03:07:15;;;;;;;9.98;5.05;;;16.10;99.90;;;;;;5051432;28;20063;-76
2021/08/18 03:09:40;;;;;;;8.13;4.10;;;16.10;99.90;;;;;;5047881;28;20029;-76
2021/08/18 03:12:06;;;;;;;9.85;4.28;;;16.10;99.90;;;;;;5065674;28;20135;-76
2021/08/18 03:14:32;;;;;;;6.90;3.97;;;16.10;99.90;;;;;;5052167;28;20040;-76
2021/08/18 03:16:58;;;;;;;12.35;4.45;;;16.10;99.90;;;;;;5066877;28;20017;-77
2021/08/18 03:19:24;;;;;;;6.35;4.18;;;16.20;99.90;;;;;;5050230;28;20029;-77
2021/08/18 03:21:50;;;;;;;5.90;3.78;;;16.20;99.90;;;;;;5048482;28;20024;-77
2021/08/18 03:24:16;;;;;;;9.63;4.43;;;16.10;99.90;;;;;;5052363;28;20096;-77
2021/08/18 03:26:42;;;;;;;8.18;3.78;;;16.10;99.90;;;;;;5049950;28;20028;-77
2021/08/18 03:29:08;;;;;;;8.93;3.72;;;16.10;99.90;;;;;;5048165;28;20036;-76
2021/08/18 03:31:34;;;;;;;7.93;3.40;;;16.10;99.90;;;;;;5046486;28;20013;-76
2021/08/18 03:33:59;;;;;;;4.13;2.97;;;16.10;99.90;;;;;;5050837;28;20497;-76
2021/08/18 03:36:25;;;;;;;8.77;2.35;;;16.10;99.90;;;;;;5050417;28;20087;-76
2021/08/18 03:38:51;;;;;;;8.05;3.03;;;16.20;99.90;;;;;;5051468;28;20119;-76
2021/08/18 03:41:16;;;;;;;5.55;2.78;;;16.20;99.90;;;;;;5048223;28;20026;-77
2021/08/18 03:43:42;;;;;;;3.65;2.55;;;16.10;99.90;;;;;;5050577;28;20081;-77
2021/08/18 03:46:08;;;;;;;7.63;3.30;;;16.10;99.90;;;;;;5048068;28;20104;-76
2021/08/18 03:48:34;;;;;;;8.57;2.72;;;16.10;99.90;;;;;;5049143;28;20044;-77
2021/08/18 03:50:59;;;;;;;3.67;3.05;;;16.10;99.90;;;;;;5047463;28;20017;-77
2021/08/18 03:53:25;;;;;;;8.63;2.70;;;16.10;99.90;;;;;;5050393;28;20028;-77
2021/08/18 03:55:51;;;;;;;9.60;2.95;;;16.10;99.90;;;;;;5048663;28;20366;-77
2021/08/18 03:58:17;;;;;;;3.75;2.38;;;16.00;99.90;;;;;;5050385;28;20044;-77
2021/08/18 04:00:43;;;;;;;5.30;3.00;;;16.00;99.90;;;;;;5046658;28;20032;-77
2021/08/18 04:03:08;;;;;;;3.20;2.78;;;16.00;99.90;;;;;;5051908;28;20025;-77
2021/08/18 04:05:34;;;;;;;3.38;2.80;;;16.00;99.90;;;;;;5049905;28;20078;-77
2021/08/18 04:08:01;;;;;;;6.55;2.63;;;16.00;99.90;;;;;;5051351;28;20159;-77
2021/08/18 04:10:27;;;;;;;8.50;3.35;;;16.00;99.90;;;;;;5049448;28;20037;-77
2021/08/18 04:12:54;;;;;;;10.30;2.88;;;16.00;99.90;;;;;;5048740;28;20055;-76
2021/08/18 04:15:24;;;;;;;12.70;2.80;;;15.90;99.90;;;;;;5047375;28;20493;-77
2021/08/18 04:17:51;;;;;;;5.10;2.38;;;15.90;99.90;;;;;;5050115;28;20392;-76
2021/08/18 04:20:16;;;;;;;5.25;2.13;;;15.70;99.90;;;;;;5041839;28;20393;-76
2021/08/18 04:22:42;;;;;;;2.75;2.00;;;15.70;99.90;;;;;;5050658;28;20029;-77
2021/08/18 04:25:10;;;;;;;8.73;2.53;;;15.80;99.90;;;;;;5054070;28;20061;-77
2021/08/18 04:27:37;;;;;;;3.75;2.15;;;15.80;99.90;;;;;;5053882;28;20551;-77
2021/08/18 04:30:05;;;;;;;6.32;2.97;;;15.80;99.90;;;;;;5051770;28;20070;-77
2021/08/18 04:32:30;;;;;;;5.57;2.63;;;15.90;99.90;;;;;;5055401;28;20025;-76
2021/08/18 04:34:56;;;;;;;4.20;2.30;;;15.90;99.90;;;;;;5049585;28;20389;-77
2021/08/18 04:37:22;;;;;;;7.00;2.25;;;15.90;99.90;;;;;;5051349;28;20512;-77
2021/08/18 04:39:47;;;;;;;2.47;2.28;;;15.90;99.90;;;;;;5049035;28;20033;-76
2021/08/18 04:42:13;;;;;;;3.33;2.10;;;15.90;99.90;;;;;;5052487;28;20377;-76
2021/08/18 04:44:38;;;;;;;7.13;3.08;;;15.90;99.90;;;;;;5053605;28;20031;-76
2021/08/18 04:47:04;;;;;;;4.40;2.00;;;15.90;99.90;;;;;;5050392;28;20023;-76
2021/08/18 04:49:30;;;;;;;2.30;2.10;;;15.90;99.90;;;;;;5055219;28;20021;-75
2021/08/18 04:51:56;;;;;;;7.45;2.03;;;15.90;99.90;;;;;;5049548;28;20481;-75
2021/08/18 04:54:21;;;;;;;2.45;1.65;;;15.80;99.90;;;;;;5054455;28;20025;-75
2021/08/18 04:56:47;;;;;;;2.70;1.90;;;15.70;99.90;;;;;;5053993;28;20088;-76
2021/08/18 04:59:12;;;;;;;2.47;2.00;;;15.70;99.90;;;;;;5069968;28;20021;-76
2021/08/18 05:01:38;;;;;;;1.98;1.75;;;15.70;99.90;;;;;;5068351;28;20033;-76
2021/08/18 05:04:06;;;;;;;1.98;1.88;;;15.70;99.90;;;;;;5073226;28;20020;-76
2021/08/18 05:06:32;;;;;;;3.22;1.88;;;15.70;99.90;;;;;;5072711;28;20163;-75
2021/08/18 05:08:57;;;;;;;6.15;2.10;;;15.70;99.90;;;;;;5072337;28;20025;-76
2021/08/18 05:11:23;;;;;;;3.88;1.98;;;15.60;99.90;;;;;;5072629;28;20055;-76
2021/08/18 05:13:49;;;;;;;3.63;1.30;;;15.60;99.90;;;;;;5074767;28;20132;-76
2021/08/18 05:16:14;;;;;;;4.20;1.70;;;15.60;99.90;;;;;;5073739;28;20025;-76
2021/08/18 05:18:40;;;;;;;2.20;1.50;;;15.60;99.90;;;;;;5067533;28;20025;-76
2021/08/18 05:21:05;;;;;;;1.38;1.27;;;15.50;99.90;;;;;;5058143;28;20028;-76
2021/08/18 05:23:31;;;;;;;2.10;1.90;;;15.60;99.90;;;;;;5061608;28;20070;-76
2021/08/18 05:25:56;;;;;;;2.60;1.58;;;15.60;99.90;;;;;;5058038;28;20389;-76
2021/08/18 05:28:22;;;;;;;2.17;1.15;;;15.60;99.90;;;;;;5055637;28;20036;-77
2021/08/18 05:30:48;;;;;;;1.90;1.42;;;15.70;99.90;;;;;;5054934;28;20120;-77
2021/08/18 05:33:13;;;;;;;2.10;1.45;;;15.70;99.90;;;;;;5054203;28;20033;-77
2021/08/18 05:35:39;;;;;;;3.70;1.70;;;15.70;99.90;;;;;;5051278;28;20051;-76
2021/08/18 05:38:04;;;;;;;3.28;1.40;;;15.70;99.90;;;;;;5055264;28;20079;-76
2021/08/18 05:40:30;;;;;;;5.40;2.15;;;15.70;99.90;;;;;;5054464;28;20033;-76
2021/08/18 05:42:55;;;;;;;3.15;1.92;;;15.70;99.90;;;;;;5053415;28;20418;-76
2021/08/18 05:45:21;;;;;;;2.95;2.03;;;15.70;99.90;;;;;;5053178;28;20091;-76
2021/08/18 05:47:47;;;;;;;2.70;1.83;;;15.80;99.90;;;;;;5051822;28;20036;-76
2021/08/18 05:50:12;;;;;;;3.90;1.95;;;15.90;99.90;;;;;;5051363;28;20041;-76
2021/08/18 05:52:38;;;;;;;4.72;2.45;;;15.90;99.90;;;;;;5056727;28;20427;-77
2021/08/18 05:55:05;;;;;;;2.65;2.10;;;15.90;99.90;;;;;;5050287;28;20025;-76
2021/08/18 05:57:31;;;;;;;4.15;2.70;;;15.90;99.90;;;;;;5049064;28;20022;-76
2021/08/18 05:59:57;;;;;;;3.92;2.20;;;16.00;99.90;;;;;;5052597;28;20032;-76
2021/08/18 06:02:23;;;;;;;3.03;1.90;;;16.00;99.90;;;;;;5051217;28;20132;-77
2021/08/18 06:04:48;;;;;;;3.53;2.25;;;16.00;99.90;;;;;;5052899;28;20044;-76
2021/08/18 06:07:15;;;;;;;2.72;2.00;;;16.10;99.90;;;;;;5050573;28;20041;-77
2021/08/18 06:09:40;;;;;;;3.47;2.45;;;16.10;99.90;;;;;;5052788;28;20051;-78
2021/08/18 06:12:07;;;;;;;3.30;2.42;;;16.10;99.90;;;;;;5048669;28;20384;-77
2021/08/18 06:14:33;;;;;;;3.67;2.72;;;16.20;99.90;;;;;;5052483;28;20056;-77
2021/08/18 06:16:58;;;;;;;3.88;2.53;;;16.20;99.90;;;;;;5050262;28;20102;-77
2021/08/18 06:19:24;;;;;;;3.33;2.88;;;16.30;99.90;;;;;;5050226;28;20021;-76
2021/08/18 06:21:51;;;;;;;4.18;3.25;;;16.30;99.90;;;;;;5051135;28;20029;-77
2021/08/18 06:24:27;;;;;;;4.07;3.05;;;16.30;99.90;;;;;;5050414;28;20469;-77
2021/08/18 06:26:53;;;;;;;3.60;2.95;;;16.40;99.90;;;;;;5051343;28;20123;-77
2021/08/18 06:29:20;;;;;;;5.15;3.35;;;16.40;99.90;;;;;;5048417;28;20017;-76
2021/08/18 06:31:46;;;;;;;5.40;3.10;;;16.40;99.90;;;;;;5064398;28;20036;-77
2021/08/18 06:34:12;;;;;;;4.63;2.97;;;16.40;99.90;;;;;;5068857;28;20044;-77
2021/08/18 06:36:37;;;;;;;5.53;3.10;;;16.40;99.90;;;;;;5067981;28;20785;-76
2021/08/18 06:39:03;;;;;;;4.40;3.08;;;16.50;99.90;;;;;;5068791;28;20497;-76
2021/08/18 06:41:29;;;;;;;4.50;3.17;;;16.50;99.90;;;;;;5067009;28;20036;-76
2021/08/18 06:43:54;;;;;;;6.60;3.47;;;16.50;99.90;;;;;;5068510;28;20037;-77
2021/08/18 06:46:20;;;;;;;4.22;3.10;;;16.60;99.90;;;;;;5068547;28;20041;-76
2021/08/18 06:48:45;;;;;;;4.90;3.45;;;16.60;99.90;;;;;;5073223;28;20063;-76
2021/08/18 06:51:15;;;;;;;9.70;3.95;;;16.70;99.90;;;;;;5067917;28;20513;-76
2021/08/18 06:53:41;;;;;;;5.28;4.13;;;16.70;99.90;;;;;;5066472;28;20028;-77
2021/08/18 06:56:07;;;;;;;10.65;3.35;;;16.70;99.90;;;;;;5066466;28;20431;-76
2021/08/18 06:58:32;;;;;;;6.82;2.95;;;16.80;99.90;;;;;;5067633;28;20036;-76
2021/08/18 07:00:58;;;;;;;8.32;3.38;;;16.80;99.90;;;;;;5064183;28;20028;-76
2021/08/18 07:03:23;;;;;;;8.82;3.95;;;16.90;99.90;;;;;;5055337;28;20056;-76
2021/08/18 07:05:49;;;;;;;7.40;3.42;;;16.90;99.90;;;;;;5046632;28;20024;-76
2021/08/18 07:08:15;;;;;;;4.43;2.70;;;17.00;99.90;;;;;;5050400;28;20017;-76
2021/08/18 07:10:40;;;;;;;8.27;4.07;;;17.00;99.90;;;;;;5051074;28;20017;-77
2021/08/18 07:13:06;;;;;;;6.72;3.75;;;17.00;99.90;;;;;;5050960;28;20465;-76
2021/08/18 07:15:32;;;;;;;3.10;2.83;;;17.10;99.90;;;;;;5050433;28;20028;-77
2021/08/18 07:17:57;;;;;;;9.68;3.65;;;17.20;99.90;;;;;;5049255;28;20032;-77
2021/08/18 07:20:23;;;;;;;6.97;3.88;;;17.20;99.90;;;;;;5050188;28;20036;-77
2021/08/18 07:22:48;;;;;;;5.93;3.67;;;17.20;99.90;;;;;;5050220;28;20028;-76
2021/08/18 07:25:14;;;;;;;6.35;3.58;;;17.30;99.90;;;;;;5049425;28;20109;-76
2021/08/18 07:27:40;;;;;;;4.72;3.13;;;17.30;99.90;;;;;;5047556;28;20021;-76
2021/08/18 07:30:06;;;;;;;5.18;3.70;;;17.30;99.90;;;;;;5047159;28;20295;-77
2021/08/18 07:32:32;;;;;;;9.98;3.70;;;17.40;99.90;;;;;;5050254;28;20021;-76
2021/08/18 07:34:58;;;;;;;6.10;3.30;;;17.40;99.90;;;;;;5049194;28;20031;-77
2021/08/18 07:37:24;;;;;;;7.43;3.85;;;17.50;99.90;;;;;;5050282;28;20025;-77
2021/08/18 07:39:50;;;;;;;4.57;3.30;;;17.60;99.90;;;;;;5049653;28;20021;-77
2021/08/18 07:42:16;;;;;;;8.55;3.83;;;17.60;99.90;;;;;;5049320;28;20301;-77
2021/08/18 07:44:41;;;;;;;3.83;3.47;;;17.60;99.90;;;;;;5048246;28;20064;-77
2021/08/18 07:47:08;;;;;;;6.40;3.67;;;17.70;99.90;;;;;;5047981;28;20033;-76
2021/08/18 07:49:33;;;;;;;4.28;3.38;;;17.80;99.90;;;;;;5046912;28;20040;-74
2021/08/18 07:51:59;;;;;;;4.18;3.15;;;17.80;99.90;;;;;;5049722;28;20026;-78
2021/08/18 07:54:24;;;;;;;13.88;3.45;;;17.90;99.90;;;;;;5051923;28;20048;-76
2021/08/18 07:56:50;;;;;;;6.60;3.67;;;17.90;99.90;;;;;;5048859;28;20032;-75
2021/08/18 07:59:15;;;;;;;3.83;3.08;;;18.00;99.90;;;;;;5069034;28;20102;-75
2021/08/18 08:01:42;;;;;;;3.75;3.45;;;18.00;99.90;;;;;;5054355;28;20029;-75
2021/08/18 08:04:07;;;;;;;9.15;4.15;;;18.10;99.90;;;;;;5053911;28;20385;-75
2021/08/18 08:06:33;;;;;;;8.65;3.30;;;18.10;99.90;;;;;;5054454;28;20037;-75
2021/08/18 08:08:59;;;;;;;9.40;3.88;;;18.10;99.90;;;;;;5069859;28;20029;-76
2021/08/18 08:11:25;;;;;;;9.82;3.92;;;18.10;99.90;;;;;;5054077;28;20049;-76
2021/08/18 08:13:51;;;;;;;5.15;4.53;;;18.20;99.90;;;;;;5052697;28;20508;-76
2021/08/18 08:16:17;;;;;;;6.70;4.25;;;18.20;99.90;;;;;;5050181;28;20017;-75
2021/08/18 08:18:42;;;;;;;7.03;4.05;;;18.20;99.90;;;;;;5053387;28;20473;-81
2021/08/18 08:21:08;;;;;;;4.60;3.30;;;18.30;99.90;;;;;;5051399;28;20095;-76
2021/08/18 08:23:34;;;;;;;5.90;3.60;;;18.30;99.90;;;;;;5054757;28;20048;-76
2021/08/18 08:25:59;;;;;;;4.93;3.75;;;18.40;99.90;;;;;;5052404;28;20415;-76
2021/08/18 08:28:25;;;;;;;6.50;4.45;;;18.40;99.90;;;;;;5054608;28;20029;-76
2021/08/18 08:30:51;;;;;;;8.82;4.38;;;18.40;99.90;;;;;;5048934;28;20100;-76
2021/08/18 08:33:17;;;;;;;4.85;3.80;;;18.40;99.90;;;;;;5053784;28;20408;-76
2021/08/18 08:35:43;;;;;;;6.63;3.92;;;18.50;99.90;;;;;;5054370;28;20097;-76
2021/08/18 08:38:09;;;;;;;7.20;4.00;;;18.50;99.90;;;;;;5048062;28;20374;-76
2021/08/18 08:40:34;;;;;;;6.20;4.38;;;18.60;99.90;;;;;;5049528;28;20447;-76
2021/08/18 08:43:01;;;;;;;4.93;4.00;;;18.60;99.90;;;;;;5054582;28;20021;-76
2021/08/18 08:45:28;;;;;;;5.90;4.70;;;18.60;99.90;;;;;;5053779;28;20048;-76
2021/08/18 08:47:54;;;;;;;6.25;3.97;;;18.60;99.90;;;;;;5054452;28;20081;-76
2021/08/18 08:50:19;;;;;;;7.57;6.30;;;18.70;99.90;;;;;;5054014;28;20127;-76
2021/08/18 08:52:48;;;;;;;6.13;4.47;;;18.80;99.90;;;;;;5055399;28;20025;-76
2021/08/18 08:55:14;;;;;;;7.50;5.47;;;18.80;99.90;;;;;;5047705;28;20029;-76
2021/08/18 08:58:06;;;;;;;5.43;4.28;;;18.80;99.90;;;;;;5053267;28;20040;-75
2021/08/18 09:00:31;;;;;;;17.55;5.47;;;18.90;99.90;;;;;;5051390;28;20041;-76
2021/08/18 09:03:26;;;;;;;9.77;4.93;;;19.00;99.90;;;;;;5054276;28;20025;-76
2021/08/18 09:06:04;;;;;;;5.75;4.40;;;19.00;99.90;;;;;;5045839;28;20048;-76
2021/08/18 09:08:30;;;;;;;6.60;4.05;;;19.00;99.90;;;;;;5065979;28;20027;-76
2021/08/18 09:11:13;;;;;;;8.13;4.70;;;19.00;99.90;;;;;;5063764;28;20025;-74
2021/08/18 09:13:44;;;;;;;5.15;4.65;;;19.00;99.90;;;;;;5067965;28;20020;-74
2021/08/18 09:16:11;;;;;;;8.15;4.38;;;19.10;99.90;;;;;;5059213;28;20032;-76
2021/08/18 09:18:54;;;;;;;5.93;5.20;;;19.10;99.90;;;;;;5063330;28;20041;-74
2021/08/18 09:21:36;;;;;;;12.05;6.38;;;19.10;99.90;;;;;;5047659;28;20167;-74
2021/08/18 09:24:25;;;;;;;6.13;5.07;;;19.10;99.90;;;;;;5054838;28;20043;-74
2021/08/18 09:27:09;;;;;;;6.47;4.95;;;19.10;99.90;;;;;;5038179;28;20112;-74
2021/08/18 09:29:46;;;;;;;6.38;5.68;;;19.10;99.90;;;;;;5071224;28;20029;-75
2021/08/18 09:32:21;;;;;;;;;;;19.10;99.90;;;;;;5059563;28;20049;-75
2021/08/18 09:34:56;;;;;;;8.63;5.30;;;19.00;99.90;;;;;;5040443;28;19909;-75
2021/08/18 09:37:23;;;;;;;8.55;7.22;;;18.80;99.90;;;;;;5041669;28;20064;-75
2021/08/18 09:39:49;;;;;;;12.02;6.65;;;18.70;99.90;;;;;;5067097;28;20524;-75
2021/08/18 09:42:35;;;;;;;8.00;6.38;;;18.60;99.90;;;;;;5052590;28;20025;-76
2021/08/18 09:45:16;;;;;;;13.10;6.90;;;18.60;99.90;;;;;;5050937;28;20048;-76
2021/08/18 09:48:04;;;;;;;10.55;6.68;;;18.60;99.90;;;;;;5050574;28;20021;-75
2021/08/18 09:50:42;;;;;;;12.05;6.78;;;18.70;99.90;;;;;;5048300;28;20057;-76
2021/08/18 09:53:12;;;;;;;8.40;7.15;;;18.60;99.90;;;;;;5068357;28;20084;-75
2021/08/18 09:55:41;;;;;;;9.35;6.90;;;18.50;99.90;;;;;;5049519;28;20024;-75
2021/08/18 09:58:18;;;;;;;11.52;7.43;;;18.50;99.90;;;;;;5050099;28;20033;-76
2021/08/18 10:00:44;;;;;;;;;;;18.40;99.90;;;;;;5050242;28;20558;-75
2021/08/18 10:03:11;;;;;;;13.25;7.15;;;18.40;99.90;;;;;;5052954;28;19925;-77
2021/08/18 10:05:37;;;;;;;14.82;7.07;;;18.40;99.90;;;;;;5051246;28;20128;-76
2021/08/18 10:08:03;;;;;;;14.05;7.10;;;18.30;99.90;;;;;;5050871;28;20121;-75
2021/08/18 10:10:31;;;;;;;10.48;7.13;;;18.20;99.90;;;;;;5056062;28;20024;-76
2021/08/18 10:12:59;;;;;;;14.98;8.07;;;18.00;99.90;;;;;;5059697;28;20017;-76
2021/08/18 10:15:25;;;;;;;15.60;8.85;;;17.80;99.90;;;;;;5063067;28;20086;-78
2021/08/18 10:17:51;;;;;;;13.93;8.57;;;17.70;99.90;;;;;;5065202;28;20041;-78
2021/08/18 10:20:23;;;;;;;12.73;8.93;;;17.70;99.90;;;;;;5083452;28;20110;-78
2021/08/18 10:23:12;;;;;;;20.25;8.80;;;17.60;99.90;;;;;;5065693;28;20083;-78
2021/08/18 10:25:44;;;;;;;16.65;9.23;;;17.60;99.90;;;;;;5063877;28;20044;-78
2021/08/18 10:28:10;;;;;;;15.20;9.25;;;17.60;99.90;;;;;;5057181;28;20048;-74
2021/08/18 10:30:54;;;;;;;20.33;9.13;;;17.60;99.90;;;;;;5052681;28;20057;-75
2021/08/18 10:33:51;;;;;;;16.50;8.73;;;17.50;99.90;;;;;;5056515;28;20036;-75
2021/08/18 10:36:41;;;;;;;13.63;9.23;;;17.60;99.90;;;;;;5056024;28;20440;-75
2021/08/18 10:39:33;;;;;;;17.70;9.55;;;17.70;99.90;;;;;;5054667;28;20040;-75
2021/08/18 10:42:01;;;;;;;17.65;10.48;;;17.90;99.90;;;;;;5052781;28;20028;-75
2021/08/18 10:44:50;;;;;;;20.50;11.20;;;18.00;99.90;;;;;;5055530;28;20044;-75
2021/08/18 10:47:23;;;;;;;15.77;9.63;;;18.20;99.90;;;;;;5051298;28;20036;-75
2021/08/18 10:50:11;;;;;;;17.23;9.73;;;18.30;99.90;;;;;;5057442;28;20050;-76
2021/08/18 10:52:37;;;;;;;18.10;9.82;;;18.50;99.90;;;;;;5057494;28;20033;-76
2021/08/18 10:55:31;;;;;;;15.95;10.07;;;18.60;99.90;;;;;;5056345;28;20111;-75
2021/08/18 10:57:58;;;;;;;14.50;9.57;;;18.60;99.90;;;;;;5052647;28;20021;-74
2021/08/18 11:00:45;;;;;;;13.15;8.88;;;18.70;99.90;;;;;;5051820;28;20028;-74
2021/08/18 11:03:14;;;;;;;17.20;8.37;;;18.70;99.90;;;;;;5064791;28;20108;-74
2021/08/18 11:05:39;;;;;;;13.70;7.60;;;18.70;99.90;;;;;;5048889;28;20610;-75
2021/08/18 11:08:23;;;;;;;11.88;8.00;;;18.60;99.90;;;;;;5051092;28;20056;-75
2021/08/18 11:10:53;;;;;;;13.77;7.47;;;18.60;99.90;;;;;;5050188;28;20079;-74
2021/08/18 11:13:38;;;;;;;14.82;7.95;;;18.60;99.90;;;;;;5051686;28;20021;-74
2021/08/18 11:16:25;;;;;;;14.35;7.82;;;18.60;99.90;;;;;;5051787;28;20477;-74
2021/08/18 11:18:56;;;;;;;10.63;6.32;;;18.70;99.90;;;;;;5051055;28;20021;-75
2021/08/18 11:21:25;;;;;;;7.47;6.07;;;18.80;99.90;;;;;;5051105;28;20472;-74
2021/08/18 11:24:00;;;;;;;11.50;7.25;;;19.10;99.90;;;;;;5052070;28;20056;-75
2021/08/18 11:26:31;;;;;;;11.35;6.65;;;19.40;99.90;;;;;;5050453;28;20132;-74
2021/08/18 11:29:01;;;;;;;11.52;7.80;;;19.60;99.90;;;;;;5050913;28;20477;-74
2021/08/18 11:31:38;;;;;;;12.02;6.65;;;19.80;99.90;;;;;;5050113;28;20025;-74
2021/08/18 11:34:16;;;;;;;9.20;6.10;;;19.70;99.90;;;;;;5050056;28;20040;-75
2021/08/18 11:36:44;;;;;;;10.82;6.18;;;19.50;99.90;;;;;;5051118;28;20706;-74
2021/08/18 11:39:10;;;;;;;10.88;5.88;;;19.30;99.90;;;;;;5057914;28;20088;-73
2021/08/18 11:41:42;;;;;;;11.68;6.32;;;19.30;99.90;;;;;;5055893;28;20040;-73
2021/08/18 11:44:14;;;;;;;11.38;5.90;;;19.30;99.90;;;;;;5049589;28;20029;-73
2021/08/18 11:46:40;;;;;;;10.52;5.20;;;19.40;99.90;;;;;;5051018;28;20116;-73
2021/08/18 11:49:08;;;;;;;9.00;5.20;;;19.50;99.90;;;;;;5049626;28;20111;-73
2021/08/18 11:51:34;;;;;;;8.73;4.85;;;19.60;99.90;;;;;;5049857;28;20103;-75
2021/08/18 11:54:00;;;;;;;10.95;5.80;;;19.80;99.90;;;;;;5051375;28;20088;-74
2021/08/18 11:56:27;;;;;;;14.43;5.65;;;19.80;99.90;;;;;;5049311;28;20028;-73
2021/08/18 11:59:02;;;;;;;4.95;4.30;;;19.90;99.90;;;;;;5048674;28;20056;-73
2021/08/18 12:01:28;;;;;;;5.35;4.32;;;19.90;99.90;;;;;;5048845;28;20040;-73
2021/08/18 12:03:55;;;;;;;5.72;4.43;;;19.80;99.90;;;;;;5046551;28;20053;-73
2021/08/18 12:06:35;;;;;;;8.40;4.70;;;19.90;99.90;;;;;;5047004;28;20119;-73
2021/08/18 12:09:04;;;;;;;9.25;4.15;;;19.90;99.90;;;;;;5049964;28;20029;-73
2021/08/18 12:11:32;;;;;;;6.53;4.50;;;19.70;99.90;;;;;;5049759;28;20100;-74
2021/08/18 12:14:08;;;;;;;5.57;4.22;;;19.70;99.90;;;;;;5049064;28;20122;-75
2021/08/18 12:16:33;;;;;;;6.18;3.70;;;19.80;99.90;;;;;;5047954;28;20453;-75
2021/08/18 12:19:23;;;;;;;10.15;3.92;;;19.70;99.90;;;;;;5048370;28;20053;-74
2021/08/18 12:22:28;;;;;;;6.00;3.40;;;19.50;99.90;;;;;;5048438;28;20032;-74
2021/08/18 12:25:09;;;;;;;4.35;3.58;;;19.30;99.90;;;;;;5046522;28;20041;-74
2021/08/18 12:27:35;;;;;;;6.28;3.95;;;19.40;99.90;;;;;;5044908;28;20048;-74
2021/08/18 12:30:06;;;;;;;5.53;3.60;;;19.50;99.90;;;;;;5050651;28;20038;-75
2021/08/18 12:32:31;;;;;;;4.05;3.13;;;19.60;99.90;;;;;;5033100;28;20441;-74
2021/08/18 12:34:58;;;;;;;3.97;3.30;;;19.60;99.90;;;;;;5028897;28;20032;-74
2021/08/18 12:37:26;;;;;;;4.43;3.42;;;19.70;99.90;;;;;;5044896;28;20029;-74
2021/08/18 12:40:03;;;;;;;4.55;3.20;;;20.00;99.90;;;;;;5049267;28;20084;-75
2021/08/18 12:42:41;;;;;;;4.70;3.30;;;20.20;99.90;;;;;;5048794;28;20040;-74
2021/08/18 12:45:15;;;;;;;7.95;2.90;;;20.30;99.90;;;;;;5048437;28;20042;-77
2021/08/18 12:48:04;;;;;;;7.25;3.00;;;20.30;99.90;;;;;;5048272;28;20071;-75
2021/08/18 12:50:37;;;;;;;6.93;3.00;;;20.40;99.90;;;;;;5047864;28;20417;-76
2021/08/18 12:53:08;;;;;;;9.52;3.25;;;20.50;99.90;;;;;;5038610;28;20043;-75